Time;durP1;ratioP1;P1;durP2;ratioP2;P2;SDS_P1;SDS_P2;PMS_P1;PMS_P2;Temp;Humidity;BMP_temperature;BMP_pressure;BME280_temperature;BME280_humidity;BME280_pressure;Samples;Min_cycle;Max_cycle;Signal;HPM_P1;HPM_P2
2020/12/03 18:53:26;;;;;;;;;;;;;;;13.79;42.28;97304.84;4787993;26;20029;-85
2020/12/03 18:55:52;;;;;;;;;;;;;;;13.78;41.92;97300.50;4954615;28;20265;-84
2020/12/03 18:58:17;;;;;;;;;;;;;;;13.80;42.29;97295.03;4955142;28;19933;-85
2020/12/03 19:00:42;;;;;;;;;;;;;;;13.80;41.82;97285.25;4951541;28;19927;-88
2020/12/03 19:03:10;;;;;;;;;;;;;;;13.89;41.69;97278.19;4963088;28;19930;-88
2020/12/03 19:05:37;;;;;;;;;;;;;;;13.97;41.36;97272.97;4971342;28;19961;-85
2020/12/03 19:08:05;;;;;;;;;;;;;;;14.00;41.50;97266.50;4967462;28;19981;-84
2020/12/03 19:10:30;;;;;;;;;;;;;;;13.98;41.72;97264.00;4966603;28;20442;-85
2020/12/03 19:12:57;;;;;;;;;;;;;;;13.98;41.78;97266.66;4968841;28;19933;-83
2020/12/03 19:15:23;;;;;;;;;;;;;;;13.98;42.02;97258.69;4962075;28;19922;-84
2020/12/03 19:17:48;;;;;;;;;;;;;;;13.99;42.08;97254.19;4970505;28;19993;-85
2020/12/03 19:20:14;;;;;;;;;;;;;;;14.02;42.10;97250.41;4966972;28;20229;-85
2020/12/03 19:22:39;;;;;;;;;;;;;;;13.96;42.14;97241.16;4968814;28;19938;-84
2020/12/03 19:25:05;;;;;;;;;;;;;;;14.11;41.67;97250.34;4965730;28;19930;-85
2020/12/03 19:27:30;;;;;;;;;;;;;;;14.12;41.71;97240.50;4968700;28;19937;-84
2020/12/03 19:29:55;;;;;;;;;;;;;;;14.03;42.19;97236.09;4966306;28;19922;-87
2020/12/03 19:32:21;;;;;;;;;;;;;;;13.93;42.37;97237.00;4968790;28;19922;-85
2020/12/03 19:34:46;;;;;;;;;;;;;;;13.84;42.49;97235.22;4969737;28;20293;-85
2020/12/03 19:37:12;;;;;;;;;;;;;;;14.03;41.43;97230.78;4966288;28;19922;-87
2020/12/03 19:39:37;;;;;;;;;;;;;;;14.09;41.36;97220.38;4964317;28;19927;-85
2020/12/03 19:42:10;;;;;;;;;;;;;;;14.10;41.51;97215.88;4967106;28;19931;-85
2020/12/03 19:44:35;;;;;;;;;;;;;;;13.94;42.10;97212.03;4965293;28;19922;-87
2020/12/03 19:47:01;;;;;;;;;;;;;;;14.06;41.73;97198.53;4970054;28;20201;-85
2020/12/03 19:49:26;;;;;;;;;;;;;;;14.25;41.40;97190.41;4970704;28;20017;-87
2020/12/03 19:52:02;;;;;;;;;;;;;;;14.17;41.77;97190.31;4968945;28;19933;-89
2020/12/03 19:54:28;;;;;;;;;;;;;;;14.12;42.29;97181.94;4972703;28;20256;-85
2020/12/03 19:56:53;;;;;;;;;;;;;;;14.20;42.16;97179.38;4966532;28;19960;-85
2020/12/03 19:59:18;;;;;;;;;;;;;;;14.15;42.20;97176.31;4971203;28;19933;-87
2020/12/03 20:01:44;;;;;;;;;;;;;;;14.10;42.47;97168.78;4977025;28;20353;-84
2020/12/03 20:04:13;;;;;;;;;;;;;;;14.16;41.98;97159.34;4968546;28;19930;-85
2020/12/03 20:06:38;;;;;;;;;;;;;;;14.13;42.31;97154.31;4967718;28;20418;-84
2020/12/03 20:09:04;;;;;;;;;;;;;;;14.12;42.33;97155.31;4964594;28;19933;-84
2020/12/03 20:11:29;;;;;;;;;;;;;;;14.17;41.90;97147.72;4964525;28;19933;-84
2020/12/03 20:13:55;;;;;;;;;;;;;;;14.19;41.99;97143.06;4966002;28;19934;-85
2020/12/03 20:16:21;;;;;;;;;;;;;;;14.18;41.81;97138.72;4966519;28;19954;-85
2020/12/03 20:18:49;;;;;;;;;;;;;;;14.24;41.62;97138.13;4967457;28;19985;-82
2020/12/03 20:21:14;;;;;;;;;;;;;;;14.12;41.92;97128.69;4968750;28;19923;-84
2020/12/03 20:23:39;;;;;;;;;;;;;;;14.09;42.12;97116.53;4967996;28;20028;-87
2020/12/03 20:26:08;;;;;;;;;;;;;;;14.11;42.22;97119.03;4968529;28;19918;-84
2020/12/03 20:28:33;;;;;;;;;;;;;;;14.12;42.31;97108.25;4972853;28;19936;-86
2020/12/03 20:30:59;;;;;;;;;;;;;;;14.17;42.34;97105.13;4970199;28;19981;-83
2020/12/03 20:33:24;;;;;;;;;;;;;;;14.11;42.33;97095.06;4969719;28;19989;-84
2020/12/03 20:35:50;;;;;;;;;;;;;;;14.09;42.32;97100.56;4970377;28;20017;-86
2020/12/03 20:38:15;;;;;;;;;;;;;;;13.95;42.81;97085.94;4972791;28;19918;-87
2020/12/03 20:40:41;;;;;;;;;;;;;;;13.88;42.88;97094.69;4969729;28;19929;-87
2020/12/03 20:43:09;;;;;;;;;;;;;;;13.92;42.53;97086.25;4970668;28;20006;-86
2020/12/03 20:45:35;;;;;;;;;;;;;;;13.86;42.92;97081.53;4969927;28;20296;-83
2020/12/03 20:48:00;;;;;;;;;;;;;;;13.87;42.82;97077.88;4972332;28;19927;-84
2020/12/03 20:50:26;;;;;;;;;;;;;;;13.91;42.52;97067.78;4976117;28;19942;-89
2020/12/03 20:52:51;;;;;;;;;;;;;;;13.92;42.60;97075.59;4973018;28;19922;-89
2020/12/03 20:55:17;;;;;;;;;;;;;;;13.84;43.23;97062.22;4969708;28;19958;-88
2020/12/03 20:57:42;;;;;;;;;;;;;;;13.90;42.88;97056.28;4960847;28;20456;-84
2020/12/03 21:00:08;;;;;;;;;;;;;;;13.90;43.00;97050.97;4962885;28;19926;-83
2020/12/03 21:02:33;;;;;;;;;;;;;;;13.89;43.13;97048.47;4961359;28;19938;-85
2020/12/03 21:04:58;;;;;;;;;;;;;;;13.76;43.56;97051.50;4961919;29;19981;-84
2020/12/03 21:07:24;;;;;;;;;;;;;;;13.73;43.58;97047.31;4960676;28;19926;-83
2020/12/03 21:09:49;;;;;;;;;;;;;;;13.65;43.70;97043.75;4960976;28;19923;-84
2020/12/03 21:12:14;;;;;;;;;;;;;;;13.59;44.11;97043.38;4959785;28;19957;-85
2020/12/03 21:14:40;;;;;;;;;;;;;;;13.62;44.21;97032.44;4960798;29;19930;-83
2020/12/03 21:17:05;;;;;;;;;;;;;;;13.63;43.90;97023.47;4961547;28;19965;-89
2020/12/03 21:19:30;;;;;;;;;;;;;;;13.69;43.76;97015.84;4960869;28;19933;-84
2020/12/03 21:21:56;;;;;;;;;;;;;;;13.72;43.94;97007.56;4971964;28;19973;-85
2020/12/03 21:24:21;;;;;;;;;;;;;;;13.66;43.93;97010.81;4973832;28;19950;-86
2020/12/03 21:26:46;;;;;;;;;;;;;;;13.62;44.30;97002.31;4979276;28;19933;-84
2020/12/03 21:29:12;;;;;;;;;;;;;;;13.66;44.37;96994.88;4975347;28;19922;-87
2020/12/03 21:31:37;;;;;;;;;;;;;;;13.63;44.46;96991.53;4972899;28;20004;-84
2020/12/03 21:34:03;;;;;;;;;;;;;;;13.62;44.45;96984.56;4970706;28;20011;-85
2020/12/03 21:36:28;;;;;;;;;;;;;;;13.73;44.45;96983.47;4969073;28;20240;-84
2020/12/03 21:38:53;;;;;;;;;;;;;;;13.80;44.28;96978.34;4971474;28;20261;-86
2020/12/03 21:41:19;;;;;;;;;;;;;;;13.77;44.32;96981.34;4968612;28;19969;-87
2020/12/03 21:43:46;;;;;;;;;;;;;;;13.85;44.28;96973.44;4971796;28;19966;-83
2020/12/03 21:46:13;;;;;;;;;;;;;;;13.87;44.24;96971.44;4968032;28;19977;-83
2020/12/03 21:48:38;;;;;;;;;;;;;;;13.96;44.25;96962.53;4968674;28;19950;-85
2020/12/03 21:51:03;;;;;;;;;;;;;;;13.92;44.30;96950.50;4966979;28;20234;-81
2020/12/03 21:53:29;;;;;;;;;;;;;;;13.96;44.00;96943.88;4977195;28;19946;-83
2020/12/03 21:55:54;;;;;;;;;;;;;;;13.98;44.05;96947.22;4979080;28;19922;-83
2020/12/03 21:58:19;;;;;;;;;;;;;;;13.86;44.29;96934.31;4979974;28;19922;-83
2020/12/03 22:00:45;;;;;;;;;;;;;;;13.76;44.73;96934.44;4978525;28;19930;-84
2020/12/03 22:03:11;;;;;;;;;;;;;;;13.76;44.76;96927.28;4979807;28;19918;-84
2020/12/03 22:05:42;;;;;;;;;;;;;;;13.76;44.81;96921.13;4972910;28;19925;-84
2020/12/03 22:08:08;;;;;;;;;;;;;;;13.71;44.94;96921.59;4971015;28;20073;-85
